sensor_id;sensor_type;location;lat;lon;timestamp;temperature;humidity
71047;SHT31;58703;48.978;8.982;2023-07-13T00:01:30;18.05;74.82
71047;SHT31;58703;48.978;8.982;2023-07-13T00:03:57;18.00;75.04
71047;SHT31;58703;48.978;8.982;2023-07-13T00:06:22;17.89;75.52
71047;SHT31;58703;48.978;8.982;2023-07-13T00:08:48;17.86;75.44
71047;SHT31;58703;48.978;8.982;2023-07-13T00:11:15;17.97;74.74
71047;SHT31;58703;48.978;8.982;2023-07-13T00:13:42;17.93;74.69
71047;SHT31;58703;48.978;8.982;2023-07-13T00:16:09;17.82;75.27
71047;SHT31;58703;48.978;8.982;2023-07-13T00:18:35;17.73;75.19
71047;SHT31;58703;48.978;8.982;2023-07-13T00:21:02;17.89;74.23
71047;SHT31;58703;48.978;8.982;2023-07-13T00:23:33;17.91;73.95
71047;SHT31;58703;48.978;8.982;2023-07-13T00:26:00;17.87;74.24
71047;SHT31;58703;48.978;8.982;2023-07-13T00:28:27;17.76;74.52
71047;SHT31;58703;48.978;8.982;2023-07-13T00:30:53;17.79;74.41
71047;SHT31;58703;48.978;8.982;2023-07-13T00:33:19;17.72;74.65
71047;SHT31;58703;48.978;8.982;2023-07-13T00:35:45;17.70;74.74
71047;SHT31;58703;48.978;8.982;2023-07-13T00:38:11;17.67;74.71
71047;SHT31;58703;48.978;8.982;2023-07-13T00:40:36;17.67;74.66
71047;SHT31;58703;48.978;8.982;2023-07-13T00:43:02;17.65;74.69
71047;SHT31;58703;48.978;8.982;2023-07-13T00:47:56;17.62;74.78
71047;SHT31;58703;48.978;8.982;2023-07-13T00:50:23;17.49;75.40
71047;SHT31;58703;48.978;8.982;2023-07-13T00:52:52;17.40;75.67
71047;SHT31;58703;48.978;8.982;2023-07-13T00:55:20;17.45;75.23
71047;SHT31;58703;48.978;8.982;2023-07-13T00:57:46;17.40;75.27
71047;SHT31;58703;48.978;8.982;2023-07-13T01:00:12;17.33;75.41
71047;SHT31;58703;48.978;8.982;2023-07-13T01:02:40;17.21;75.85
71047;SHT31;58703;48.978;8.982;2023-07-13T01:05:12;17.15;75.93
71047;SHT31;58703;48.978;8.982;2023-07-13T01:07:40;17.15;75.86
71047;SHT31;58703;48.978;8.982;2023-07-13T01:10:07;17.09;76.03
71047;SHT31;58703;48.978;8.982;2023-07-13T01:12:33;16.98;76.80
71047;SHT31;58703;48.978;8.982;2023-07-13T01:14:59;16.77;77.65
71047;SHT31;58703;48.978;8.982;2023-07-13T01:17:27;16.65;78.45
71047;SHT31;58703;48.978;8.982;2023-07-13T01:19:53;16.54;78.52
71047;SHT31;58703;48.978;8.982;2023-07-13T01:22:19;16.46;79.24
71047;SHT31;58703;48.978;8.982;2023-07-13T01:24:50;16.33;79.73
71047;SHT31;58703;48.978;8.982;2023-07-13T01:27:20;16.16;80.86
71047;SHT31;58703;48.978;8.982;2023-07-13T01:29:46;16.00;81.49
71047;SHT31;58703;48.978;8.982;2023-07-13T01:32:15;15.97;81.69
71047;SHT31;58703;48.978;8.982;2023-07-13T01:34:41;15.96;81.80
71047;SHT31;58703;48.978;8.982;2023-07-13T01:37:11;15.82;82.26
71047;SHT31;58703;48.978;8.982;2023-07-13T01:39:37;15.70;83.19
71047;SHT31;58703;48.978;8.982;2023-07-13T01:42:03;15.61;83.60
71047;SHT31;58703;48.978;8.982;2023-07-13T01:44:29;15.46;84.24
71047;SHT31;58703;48.978;8.982;2023-07-13T01:46:54;15.34;84.91
71047;SHT31;58703;48.978;8.982;2023-07-13T01:49:20;15.24;85.47
71047;SHT31;58703;48.978;8.982;2023-07-13T01:51:45;15.17;85.40
71047;SHT31;58703;48.978;8.982;2023-07-13T01:54:11;15.11;85.52
71047;SHT31;58703;48.978;8.982;2023-07-13T01:56:36;15.00;86.14
71047;SHT31;58703;48.978;8.982;2023-07-13T01:59:02;14.94;86.82
71047;SHT31;58703;48.978;8.982;2023-07-13T02:01:28;14.83;87.24
71047;SHT31;58703;48.978;8.982;2023-07-13T02:03:53;14.80;87.26
71047;SHT31;58703;48.978;8.982;2023-07-13T02:06:19;14.72;87.71
71047;SHT31;58703;48.978;8.982;2023-07-13T02:08:45;14.62;88.11
71047;SHT31;58703;48.978;8.982;2023-07-13T02:11:11;14.55;88.49
71047;SHT31;58703;48.978;8.982;2023-07-13T02:13:36;14.53;88.55
71047;SHT31;58703;48.978;8.982;2023-07-13T02:16:02;14.50;88.80
71047;SHT31;58703;48.978;8.982;2023-07-13T02:18:27;14.52;88.43
71047;SHT31;58703;48.978;8.982;2023-07-13T02:20:53;14.46;88.62
71047;SHT31;58703;48.978;8.982;2023-07-13T02:23:18;14.43;88.32
71047;SHT31;58703;48.978;8.982;2023-07-13T02:25:45;14.34;89.00
71047;SHT31;58703;48.978;8.982;2023-07-13T02:28:10;14.36;89.07
71047;SHT31;58703;48.978;8.982;2023-07-13T02:30:36;14.23;89.46
71047;SHT31;58703;48.978;8.982;2023-07-13T02:33:02;14.13;89.87
71047;SHT31;58703;48.978;8.982;2023-07-13T02:35:28;14.04;90.31
71047;SHT31;58703;48.978;8.982;2023-07-13T02:37:53;13.99;90.38
71047;SHT31;58703;48.978;8.982;2023-07-13T02:40:19;13.91;91.02
71047;SHT31;58703;48.978;8.982;2023-07-13T02:42:44;13.81;91.43
71047;SHT31;58703;48.978;8.982;2023-07-13T02:45:10;13.83;91.34
71047;SHT31;58703;48.978;8.982;2023-07-13T02:47:40;13.82;91.30
71047;SHT31;58703;48.978;8.982;2023-07-13T02:50:06;13.77;91.54
71047;SHT31;58703;48.978;8.982;2023-07-13T02:52:32;13.61;91.77
71047;SHT31;58703;48.978;8.982;2023-07-13T02:54:57;13.54;92.51
71047;SHT31;58703;48.978;8.982;2023-07-13T02:57:23;13.53;92.88
71047;SHT31;58703;48.978;8.982;2023-07-13T02:59:49;13.44;92.88
71047;SHT31;58703;48.978;8.982;2023-07-13T03:02:15;13.41;93.18
71047;SHT31;58703;48.978;8.982;2023-07-13T03:04:41;13.38;93.06
71047;SHT31;58703;48.978;8.982;2023-07-13T03:07:07;13.28;92.99
71047;SHT31;58703;48.978;8.982;2023-07-13T03:09:34;13.28;93.39
71047;SHT31;58703;48.978;8.982;2023-07-13T03:11:59;13.27;93.37
71047;SHT31;58703;48.978;8.982;2023-07-13T03:14:25;13.17;93.72
71047;SHT31;58703;48.978;8.982;2023-07-13T03:16:51;13.11;94.21
71047;SHT31;58703;48.978;8.982;2023-07-13T03:19:17;13.10;94.18
71047;SHT31;58703;48.978;8.982;2023-07-13T03:21:43;13.09;94.11
71047;SHT31;58703;48.978;8.982;2023-07-13T03:24:09;13.09;94.00
71047;SHT31;58703;48.978;8.982;2023-07-13T03:26:35;13.19;93.80
71047;SHT31;58703;48.978;8.982;2023-07-13T03:29:00;13.20;93.58
71047;SHT31;58703;48.978;8.982;2023-07-13T03:31:31;13.27;92.96
71047;SHT31;58703;48.978;8.982;2023-07-13T03:33:57;13.34;92.77
71047;SHT31;58703;48.978;8.982;2023-07-13T03:36:25;13.38;92.32
71047;SHT31;58703;48.978;8.982;2023-07-13T03:38:57;13.36;92.33
71047;SHT31;58703;48.978;8.982;2023-07-13T03:41:24;13.31;92.59
71047;SHT31;58703;48.978;8.982;2023-07-13T03:43:50;13.21;92.81
71047;SHT31;58703;48.978;8.982;2023-07-13T03:46:17;13.21;92.91
71047;SHT31;58703;48.978;8.982;2023-07-13T03:48:44;13.19;92.99
71047;SHT31;58703;48.978;8.982;2023-07-13T03:51:10;13.11;93.47
71047;SHT31;58703;48.978;8.982;2023-07-13T03:53:41;13.03;93.06
71047;SHT31;58703;48.978;8.982;2023-07-13T03:56:07;13.02;93.49
71047;SHT31;58703;48.978;8.982;2023-07-13T03:58:35;13.04;93.65
71047;SHT31;58703;48.978;8.982;2023-07-13T04:01:02;13.10;93.26
71047;SHT31;58703;48.978;8.982;2023-07-13T04:03:29;13.07;93.56
71047;SHT31;58703;48.978;8.982;2023-07-13T04:05:55;13.17;93.46
71047;SHT31;58703;48.978;8.982;2023-07-13T04:08:29;13.24;93.24
71047;SHT31;58703;48.978;8.982;2023-07-13T04:10:56;13.30;93.45
71047;SHT31;58703;48.978;8.982;2023-07-13T04:13:22;13.33;93.62
71047;SHT31;58703;48.978;8.982;2023-07-13T04:15:47;13.38;93.39
71047;SHT31;58703;48.978;8.982;2023-07-13T04:18:13;13.40;93.21
71047;SHT31;58703;48.978;8.982;2023-07-13T04:20:39;13.41;92.82
71047;SHT31;58703;48.978;8.982;2023-07-13T04:23:04;13.48;92.90
71047;SHT31;58703;48.978;8.982;2023-07-13T04:25:30;13.51;92.46
71047;SHT31;58703;48.978;8.982;2023-07-13T04:27:55;13.54;92.35
71047;SHT31;58703;48.978;8.982;2023-07-13T04:30:21;13.60;91.68
71047;SHT31;58703;48.978;8.982;2023-07-13T04:32:47;13.60;92.11
71047;SHT31;58703;48.978;8.982;2023-07-13T04:35:12;13.67;92.23
71047;SHT31;58703;48.978;8.982;2023-07-13T04:37:40;13.61;92.61
71047;SHT31;58703;48.978;8.982;2023-07-13T04:40:06;13.58;92.69
71047;SHT31;58703;48.978;8.982;2023-07-13T04:42:32;13.60;92.67
71047;SHT31;58703;48.978;8.982;2023-07-13T04:44:59;13.50;93.46
71047;SHT31;58703;48.978;8.982;2023-07-13T04:47:25;13.53;93.58
71047;SHT31;58703;48.978;8.982;2023-07-13T04:49:50;13.61;93.23
71047;SHT31;58703;48.978;8.982;2023-07-13T04:52:16;13.71;93.55
71047;SHT31;58703;48.978;8.982;2023-07-13T04:54:41;14.02;93.56
71047;SHT31;58703;48.978;8.982;2023-07-13T04:57:07;14.26;92.58
71047;SHT31;58703;48.978;8.982;2023-07-13T04:59:34;14.49;90.94
71047;SHT31;58703;48.978;8.982;2023-07-13T05:01:59;14.53;90.46
71047;SHT31;58703;48.978;8.982;2023-07-13T05:04:27;14.52;90.48
71047;SHT31;58703;48.978;8.982;2023-07-13T05:06:52;14.55;90.85
71047;SHT31;58703;48.978;8.982;2023-07-13T05:09:18;14.69;90.72
71047;SHT31;58703;48.978;8.982;2023-07-13T05:11:44;14.76;90.64
71047;SHT31;58703;48.978;8.982;2023-07-13T05:14:09;14.60;89.58
71047;SHT31;58703;48.978;8.982;2023-07-13T05:16:35;14.67;88.55
71047;SHT31;58703;48.978;8.982;2023-07-13T05:19:01;14.74;88.61
71047;SHT31;58703;48.978;8.982;2023-07-13T05:21:27;14.84;87.87
71047;SHT31;58703;48.978;8.982;2023-07-13T05:23:52;15.01;86.92
71047;SHT31;58703;48.978;8.982;2023-07-13T05:26:18;15.14;86.47
71047;SHT31;58703;48.978;8.982;2023-07-13T05:28:44;15.15;86.82
71047;SHT31;58703;48.978;8.982;2023-07-13T05:31:10;15.20;87.73
71047;SHT31;58703;48.978;8.982;2023-07-13T05:33:35;15.24;87.55
71047;SHT31;58703;48.978;8.982;2023-07-13T05:36:01;15.36;87.25
71047;SHT31;58703;48.978;8.982;2023-07-13T05:38:28;15.46;86.19
71047;SHT31;58703;48.978;8.982;2023-07-13T05:40:55;15.62;85.76
71047;SHT31;58703;48.978;8.982;2023-07-13T05:43:22;15.76;85.49
71047;SHT31;58703;48.978;8.982;2023-07-13T05:45:48;15.88;84.23
71047;SHT31;58703;48.978;8.982;2023-07-13T05:48:15;15.92;84.81
71047;SHT31;58703;48.978;8.982;2023-07-13T05:50:41;16.09;84.59
71047;SHT31;58703;48.978;8.982;2023-07-13T05:53:06;16.12;84.30
71047;SHT31;58703;48.978;8.982;2023-07-13T05:55:32;16.12;84.17
71047;SHT31;58703;48.978;8.982;2023-07-13T05:57:59;16.21;83.07
71047;SHT31;58703;48.978;8.982;2023-07-13T06:00:25;16.53;83.41
71047;SHT31;58703;48.978;8.982;2023-07-13T06:02:51;16.72;82.59
71047;SHT31;58703;48.978;8.982;2023-07-13T06:05:17;16.65;82.05
71047;SHT31;58703;48.978;8.982;2023-07-13T06:07:42;16.67;82.02
71047;SHT31;58703;48.978;8.982;2023-07-13T06:10:08;16.81;82.22
71047;SHT31;58703;48.978;8.982;2023-07-13T06:12:34;16.85;80.95
71047;SHT31;58703;48.978;8.982;2023-07-13T06:14:59;16.75;80.30
71047;SHT31;58703;48.978;8.982;2023-07-13T06:17:25;16.81;79.10
71047;SHT31;58703;48.978;8.982;2023-07-13T06:19:51;16.89;80.66
71047;SHT31;58703;48.978;8.982;2023-07-13T06:22:16;17.08;80.77
71047;SHT31;58703;48.978;8.982;2023-07-13T06:24:42;17.40;79.25
71047;SHT31;58703;48.978;8.982;2023-07-13T06:27:07;17.29;79.72
71047;SHT31;58703;48.978;8.982;2023-07-13T06:29:33;17.62;78.81
71047;SHT31;58703;48.978;8.982;2023-07-13T06:31:58;18.17;76.76
71047;SHT31;58703;48.978;8.982;2023-07-13T06:34:24;18.85;75.16
71047;SHT31;58703;48.978;8.982;2023-07-13T06:36:49;19.36;72.24
71047;SHT31;58703;48.978;8.982;2023-07-13T06:39:15;20.11;70.25
71047;SHT31;58703;48.978;8.982;2023-07-13T06:41:41;20.79;67.31
71047;SHT31;58703;48.978;8.982;2023-07-13T06:44:06;21.35;66.08
71047;SHT31;58703;48.978;8.982;2023-07-13T06:46:32;21.19;65.55
71047;SHT31;58703;48.978;8.982;2023-07-13T06:48:58;21.43;64.35
71047;SHT31;58703;48.978;8.982;2023-07-13T06:51:23;21.81;64.12
71047;SHT31;58703;48.978;8.982;2023-07-13T06:53:49;22.30;62.77
71047;SHT31;58703;48.978;8.982;2023-07-13T06:56:15;21.13;65.97
71047;SHT31;58703;48.978;8.982;2023-07-13T06:58:41;21.85;63.26
71047;SHT31;58703;48.978;8.982;2023-07-13T07:01:06;22.13;62.87
71047;SHT31;58703;48.978;8.982;2023-07-13T07:03:32;22.60;58.83
71047;SHT31;58703;48.978;8.982;2023-07-13T07:06:18;22.01;57.37
71047;SHT31;58703;48.978;8.982;2023-07-13T07:08:45;21.65;59.16
71047;SHT31;58703;48.978;8.982;2023-07-13T07:11:17;21.91;57.37
71047;SHT31;58703;48.978;8.982;2023-07-13T07:13:42;22.61;57.13
71047;SHT31;58703;48.978;8.982;2023-07-13T07:16:08;22.57;54.88
71047;SHT31;58703;48.978;8.982;2023-07-13T07:18:34;22.37;56.14
71047;SHT31;58703;48.978;8.982;2023-07-13T07:21:00;22.47;56.79
71047;SHT31;58703;48.978;8.982;2023-07-13T07:23:26;22.94;55.23
71047;SHT31;58703;48.978;8.982;2023-07-13T07:25:52;23.12;54.61
71047;SHT31;58703;48.978;8.982;2023-07-13T07:28:18;23.75;53.47
71047;SHT31;58703;48.978;8.982;2023-07-13T07:30:44;23.61;53.02
71047;SHT31;58703;48.978;8.982;2023-07-13T07:33:10;24.12;51.94
71047;SHT31;58703;48.978;8.982;2023-07-13T07:35:36;24.06;51.86
71047;SHT31;58703;48.978;8.982;2023-07-13T07:38:01;24.12;52.15
71047;SHT31;58703;48.978;8.982;2023-07-13T07:40:27;24.46;50.97
71047;SHT31;58703;48.978;8.982;2023-07-13T07:42:53;23.90;51.62
71047;SHT31;58703;48.978;8.982;2023-07-13T07:45:19;23.11;53.04
71047;SHT31;58703;48.978;8.982;2023-07-13T07:47:45;23.48;52.00
71047;SHT31;58703;48.978;8.982;2023-07-13T07:50:12;23.71;52.26
71047;SHT31;58703;48.978;8.982;2023-07-13T07:52:38;23.92;50.47
71047;SHT31;58703;48.978;8.982;2023-07-13T07:55:05;23.42;50.79
71047;SHT31;58703;48.978;8.982;2023-07-13T07:57:31;23.69;50.35
71047;SHT31;58703;48.978;8.982;2023-07-13T07:59:57;23.17;52.22
71047;SHT31;58703;48.978;8.982;2023-07-13T08:02:24;22.77;52.50
71047;SHT31;58703;48.978;8.982;2023-07-13T08:04:49;23.20;52.30
71047;SHT31;58703;48.978;8.982;2023-07-13T08:07:15;23.42;50.53
71047;SHT31;58703;48.978;8.982;2023-07-13T08:09:40;23.11;52.30
71047;SHT31;58703;48.978;8.982;2023-07-13T08:12:06;23.58;51.58
71047;SHT31;58703;48.978;8.982;2023-07-13T08:14:32;23.66;50.74
71047;SHT31;58703;48.978;8.982;2023-07-13T08:16:58;23.99;50.03
71047;SHT31;58703;48.978;8.982;2023-07-13T08:19:23;23.68;50.02
71047;SHT31;58703;48.978;8.982;2023-07-13T08:21:49;23.35;52.11
71047;SHT31;58703;48.978;8.982;2023-07-13T08:24:15;23.86;51.73
71047;SHT31;58703;48.978;8.982;2023-07-13T08:26:40;23.73;51.59
71047;SHT31;58703;48.978;8.982;2023-07-13T08:29:06;23.79;51.11
71047;SHT31;58703;48.978;8.982;2023-07-13T08:31:31;23.86;49.30
71047;SHT31;58703;48.978;8.982;2023-07-13T08:33:57;23.92;49.65
71047;SHT31;58703;48.978;8.982;2023-07-13T08:36:23;24.70;47.27
71047;SHT31;58703;48.978;8.982;2023-07-13T08:38:48;24.10;48.72
71047;SHT31;58703;48.978;8.982;2023-07-13T08:41:16;24.40;49.80
71047;SHT31;58703;48.978;8.982;2023-07-13T08:43:46;24.34;46.69
71047;SHT31;58703;48.978;8.982;2023-07-13T08:46:19;24.61;46.52
71047;SHT31;58703;48.978;8.982;2023-07-13T08:49:12;24.75;48.57
71047;SHT31;58703;48.978;8.982;2023-07-13T08:54:26;24.60;47.54
71047;SHT31;58703;48.978;8.982;2023-07-13T08:56:55;24.74;47.74
71047;SHT31;58703;48.978;8.982;2023-07-13T08:59:25;25.19;46.40
71047;SHT31;58703;48.978;8.982;2023-07-13T09:04:56;26.24;46.44
71047;SHT31;58703;48.978;8.982;2023-07-13T09:07:33;25.70;45.31
71047;SHT31;58703;48.978;8.982;2023-07-13T09:10:18;26.21;45.78
71047;SHT31;58703;48.978;8.982;2023-07-13T09:13:22;25.49;46.22
71047;SHT31;58703;48.978;8.982;2023-07-13T09:15:43;24.47;47.75
71047;SHT31;58703;48.978;8.982;2023-07-13T09:21:00;23.81;48.43
71047;SHT31;58703;48.978;8.982;2023-07-13T09:23:28;24.59;49.43
71047;SHT31;58703;48.978;8.982;2023-07-13T09:26:02;25.52;47.18
71047;SHT31;58703;48.978;8.982;2023-07-13T09:28:34;25.26;46.13
71047;SHT31;58703;48.978;8.982;2023-07-13T09:31:13;25.59;46.65
71047;SHT31;58703;48.978;8.982;2023-07-13T09:33:39;25.85;45.73
71047;SHT31;58703;48.978;8.982;2023-07-13T09:36:28;26.26;45.48
71047;SHT31;58703;48.978;8.982;2023-07-13T09:39:15;25.79;45.07
71047;SHT31;58703;48.978;8.982;2023-07-13T09:41:55;26.18;45.61
71047;SHT31;58703;48.978;8.982;2023-07-13T09:46:56;25.56;46.76
71047;SHT31;58703;48.978;8.982;2023-07-13T09:49:26;24.88;47.55
71047;SHT31;58703;48.978;8.982;2023-07-13T09:52:05;25.18;46.52
71047;SHT31;58703;48.978;8.982;2023-07-13T09:54:34;26.28;44.18
71047;SHT31;58703;48.978;8.982;2023-07-13T09:57:01;26.72;44.73
71047;SHT31;58703;48.978;8.982;2023-07-13T09:59:36;26.59;43.68
71047;SHT31;58703;48.978;8.982;2023-07-13T10:02:28;26.61;44.65
71047;SHT31;58703;48.978;8.982;2023-07-13T10:05:04;26.65;44.42
71047;SHT31;58703;48.978;8.982;2023-07-13T10:07:32;27.12;43.85
71047;SHT31;58703;48.978;8.982;2023-07-13T10:09:59;25.25;47.07
71047;SHT31;58703;48.978;8.982;2023-07-13T10:12:30;25.63;46.30
71047;SHT31;58703;48.978;8.982;2023-07-13T10:15:01;26.12;44.40
71047;SHT31;58703;48.978;8.982;2023-07-13T10:17:31;25.53;44.05
71047;SHT31;58703;48.978;8.982;2023-07-13T10:19:59;25.31;45.17
71047;SHT31;58703;48.978;8.982;2023-07-13T10:22:54;26.71;44.77
71047;SHT31;58703;48.978;8.982;2023-07-13T10:25:25;26.34;44.46
71047;SHT31;58703;48.978;8.982;2023-07-13T10:28:31;26.71;43.41
71047;SHT31;58703;48.978;8.982;2023-07-13T10:30:59;27.29;42.72
71047;SHT31;58703;48.978;8.982;2023-07-13T10:33:26;25.80;42.20
71047;SHT31;58703;48.978;8.982;2023-07-13T10:36:12;26.14;41.40
71047;SHT31;58703;48.978;8.982;2023-07-13T10:38:39;26.36;41.84
71047;SHT31;58703;48.978;8.982;2023-07-13T10:41:07;26.59;42.79
71047;SHT31;58703;48.978;8.982;2023-07-13T10:43:39;25.31;45.18
71047;SHT31;58703;48.978;8.982;2023-07-13T10:46:09;25.31;45.25
71047;SHT31;58703;48.978;8.982;2023-07-13T10:48:36;26.16;44.16
71047;SHT31;58703;48.978;8.982;2023-07-13T10:51:04;27.10;43.77
71047;SHT31;58703;48.978;8.982;2023-07-13T10:53:33;27.53;43.73
71047;SHT31;58703;48.978;8.982;2023-07-13T10:56:01;27.43;42.19
71047;SHT31;58703;48.978;8.982;2023-07-13T11:01:01;27.94;41.87
71047;SHT31;58703;48.978;8.982;2023-07-13T11:03:29;28.07;41.02
71047;SHT31;58703;48.978;8.982;2023-07-13T11:06:29;28.80;39.30
71047;SHT31;58703;48.978;8.982;2023-07-13T11:09:43;29.15;40.84
71047;SHT31;58703;48.978;8.982;2023-07-13T11:11:44;27.50;42.42
71047;SHT31;58703;48.978;8.982;2023-07-13T11:16:52;27.16;41.23
71047;SHT31;58703;48.978;8.982;2023-07-13T11:22:10;27.05;42.93
71047;SHT31;58703;48.978;8.982;2023-07-13T11:24:51;26.89;42.39
71047;SHT31;58703;48.978;8.982;2023-07-13T11:29:51;26.87;42.82
71047;SHT31;58703;48.978;8.982;2023-07-13T11:32:23;27.10;41.52
71047;SHT31;58703;48.978;8.982;2023-07-13T11:34:53;26.91;41.93
71047;SHT31;58703;48.978;8.982;2023-07-13T11:37:19;27.18;42.22
71047;SHT31;58703;48.978;8.982;2023-07-13T11:39:46;26.52;42.00
71047;SHT31;58703;48.978;8.982;2023-07-13T11:42:15;26.30;42.01
71047;SHT31;58703;48.978;8.982;2023-07-13T11:44:46;26.92;41.38
71047;SHT31;58703;48.978;8.982;2023-07-13T11:47:20;26.78;39.29
71047;SHT31;58703;48.978;8.982;2023-07-13T11:49:52;27.13;40.22
71047;SHT31;58703;48.978;8.982;2023-07-13T11:52:22;26.75;39.46
71047;SHT31;58703;48.978;8.982;2023-07-13T11:54:52;27.06;40.84
71047;SHT31;58703;48.978;8.982;2023-07-13T11:57:36;26.47;41.52
71047;SHT31;58703;48.978;8.982;2023-07-13T12:00:12;26.10;41.74
71047;SHT31;58703;48.978;8.982;2023-07-13T12:02:46;26.82;40.00
71047;SHT31;58703;48.978;8.982;2023-07-13T12:05:14;27.39;38.85
71047;SHT31;58703;48.978;8.982;2023-07-13T12:07:41;26.23;37.91
71047;SHT31;58703;48.978;8.982;2023-07-13T12:12:52;26.81;37.88
71047;SHT31;58703;48.978;8.982;2023-07-13T12:15:18;27.23;36.76
71047;SHT31;58703;48.978;8.982;2023-07-13T12:17:44;26.67;38.23
71047;SHT31;58703;48.978;8.982;2023-07-13T12:20:20;27.91;37.91
71047;SHT31;58703;48.978;8.982;2023-07-13T12:22:47;27.43;37.19
71047;SHT31;58703;48.978;8.982;2023-07-13T12:25:14;26.74;38.52
71047;SHT31;58703;48.978;8.982;2023-07-13T12:27:40;27.54;37.85
71047;SHT31;58703;48.978;8.982;2023-07-13T12:30:30;27.26;38.23
71047;SHT31;58703;48.978;8.982;2023-07-13T12:33:06;27.64;38.20
71047;SHT31;58703;48.978;8.982;2023-07-13T12:35:40;28.29;37.26
71047;SHT31;58703;48.978;8.982;2023-07-13T12:38:08;27.13;38.20
71047;SHT31;58703;48.978;8.982;2023-07-13T12:40:36;28.40;37.87
71047;SHT31;58703;48.978;8.982;2023-07-13T12:43:03;27.71;37.55
71047;SHT31;58703;48.978;8.982;2023-07-13T12:45:32;27.94;37.62
71047;SHT31;58703;48.978;8.982;2023-07-13T12:48:05;27.30;37.56
71047;SHT31;58703;48.978;8.982;2023-07-13T12:50:41;26.96;37.66
71047;SHT31;58703;48.978;8.982;2023-07-13T12:53:15;27.61;39.32
71047;SHT31;58703;48.978;8.982;2023-07-13T12:55:53;28.58;37.81
71047;SHT31;58703;48.978;8.982;2023-07-13T12:58:26;28.62;38.31
71047;SHT31;58703;48.978;8.982;2023-07-13T13:00:58;27.80;38.38
71047;SHT31;58703;48.978;8.982;2023-07-13T13:03:32;28.59;38.14
71047;SHT31;58703;48.978;8.982;2023-07-13T13:06:03;27.87;36.56
71047;SHT31;58703;48.978;8.982;2023-07-13T13:08:32;27.90;38.84
71047;SHT31;58703;48.978;8.982;2023-07-13T13:10:57;27.93;38.10
71047;SHT31;58703;48.978;8.982;2023-07-13T13:13:23;27.67;38.40
71047;SHT31;58703;48.978;8.982;2023-07-13T13:15:50;27.98;38.44
71047;SHT31;58703;48.978;8.982;2023-07-13T13:18:20;29.00;37.06
71047;SHT31;58703;48.978;8.982;2023-07-13T13:20:48;29.26;37.32
71047;SHT31;58703;48.978;8.982;2023-07-13T13:23:18;28.79;37.57
71047;SHT31;58703;48.978;8.982;2023-07-13T13:25:46;28.24;37.33
71047;SHT31;58703;48.978;8.982;2023-07-13T13:28:17;28.99;35.83
71047;SHT31;58703;48.978;8.982;2023-07-13T13:30:43;28.64;35.65
71047;SHT31;58703;48.978;8.982;2023-07-13T13:33:17;28.27;37.51
71047;SHT31;58703;48.978;8.982;2023-07-13T13:35:42;28.61;36.92
71047;SHT31;58703;48.978;8.982;2023-07-13T13:38:16;29.64;36.26
71047;SHT31;58703;48.978;8.982;2023-07-13T13:40:43;28.95;35.78
71047;SHT31;58703;48.978;8.982;2023-07-13T13:43:15;28.65;35.10
71047;SHT31;58703;48.978;8.982;2023-07-13T13:45:42;28.71;35.32
71047;SHT31;58703;48.978;8.982;2023-07-13T13:48:14;28.78;35.07
71047;SHT31;58703;48.978;8.982;2023-07-13T13:50:40;30.12;34.30
71047;SHT31;58703;48.978;8.982;2023-07-13T13:53:10;31.37;32.78
71047;SHT31;58703;48.978;8.982;2023-07-13T13:55:36;30.78;33.18
71047;SHT31;58703;48.978;8.982;2023-07-13T13:58:02;29.12;35.16
71047;SHT31;58703;48.978;8.982;2023-07-13T14:00:29;30.07;34.08
71047;SHT31;58703;48.978;8.982;2023-07-13T14:02:55;30.73;33.14
71047;SHT31;58703;48.978;8.982;2023-07-13T14:05:24;29.27;35.18
71047;SHT31;58703;48.978;8.982;2023-07-13T14:07:52;29.67;34.88
71047;SHT31;58703;48.978;8.982;2023-07-13T14:10:20;30.55;34.07
71047;SHT31;58703;48.978;8.982;2023-07-13T14:12:50;29.61;34.87
71047;SHT31;58703;48.978;8.982;2023-07-13T14:15:21;30.59;35.00
71047;SHT31;58703;48.978;8.982;2023-07-13T14:17:47;28.65;35.80
71047;SHT31;58703;48.978;8.982;2023-07-13T14:20:16;28.98;35.24
71047;SHT31;58703;48.978;8.982;2023-07-13T14:22:42;29.09;35.09
71047;SHT31;58703;48.978;8.982;2023-07-13T14:25:12;29.19;35.94
71047;SHT31;58703;48.978;8.982;2023-07-13T14:27:38;29.15;35.50
71047;SHT31;58703;48.978;8.982;2023-07-13T14:30:12;30.09;35.54
71047;SHT31;58703;48.978;8.982;2023-07-13T14:32:38;31.14;33.81
71047;SHT31;58703;48.978;8.982;2023-07-13T14:35:04;29.25;36.25
71047;SHT31;58703;48.978;8.982;2023-07-13T14:37:30;29.91;35.58
71047;SHT31;58703;48.978;8.982;2023-07-13T14:39:55;30.99;33.97
71047;SHT31;58703;48.978;8.982;2023-07-13T14:42:21;30.56;34.41
71047;SHT31;58703;48.978;8.982;2023-07-13T14:44:46;31.04;34.06
71047;SHT31;58703;48.978;8.982;2023-07-13T14:47:12;31.54;33.42
71047;SHT31;58703;48.978;8.982;2023-07-13T14:49:40;30.62;34.76
71047;SHT31;58703;48.978;8.982;2023-07-13T14:52:15;31.19;34.06
71047;SHT31;58703;48.978;8.982;2023-07-13T14:54:41;29.43;34.43
71047;SHT31;58703;48.978;8.982;2023-07-13T14:57:19;27.69;36.81
71047;SHT31;58703;48.978;8.982;2023-07-13T14:59:46;27.23;38.47
71047;SHT31;58703;48.978;8.982;2023-07-13T15:02:35;27.69;37.39
71047;SHT31;58703;48.978;8.982;2023-07-13T15:05:13;29.26;36.97
71047;SHT31;58703;48.978;8.982;2023-07-13T15:07:38;30.31;35.21
71047;SHT31;58703;48.978;8.982;2023-07-13T15:12:40;26.79;39.61
71047;SHT31;58703;48.978;8.982;2023-07-13T15:15:05;28.24;38.28
71047;SHT31;58703;48.978;8.982;2023-07-13T15:17:36;30.04;35.82
71047;SHT31;58703;48.978;8.982;2023-07-13T15:20:15;30.59;35.31
71047;SHT31;58703;48.978;8.982;2023-07-13T15:22:43;31.01;34.53
71047;SHT31;58703;48.978;8.982;2023-07-13T15:25:19;29.46;35.51
71047;SHT31;58703;48.978;8.982;2023-07-13T15:27:45;29.42;35.35
71047;SHT31;58703;48.978;8.982;2023-07-13T15:30:12;29.91;35.54
71047;SHT31;58703;48.978;8.982;2023-07-13T15:32:38;30.46;35.66
71047;SHT31;58703;48.978;8.982;2023-07-13T15:35:05;27.93;37.60
71047;SHT31;58703;48.978;8.982;2023-07-13T15:37:31;29.31;35.92
71047;SHT31;58703;48.978;8.982;2023-07-13T15:39:56;29.94;35.22
71047;SHT31;58703;48.978;8.982;2023-07-13T15:42:22;29.09;36.13
71047;SHT31;58703;48.978;8.982;2023-07-13T15:44:48;30.46;34.77
71047;SHT31;58703;48.978;8.982;2023-07-13T15:47:14;29.97;35.06
71047;SHT31;58703;48.978;8.982;2023-07-13T15:49:41;29.97;34.55
71047;SHT31;58703;48.978;8.982;2023-07-13T15:52:17;30.76;34.11
71047;SHT31;58703;48.978;8.982;2023-07-13T15:54:44;31.14;33.75
71047;SHT31;58703;48.978;8.982;2023-07-13T15:57:11;30.46;33.50
71047;SHT31;58703;48.978;8.982;2023-07-13T15:59:37;29.97;34.82
71047;SHT31;58703;48.978;8.982;2023-07-13T16:02:13;29.22;36.21
71047;SHT31;58703;48.978;8.982;2023-07-13T16:04:41;29.36;35.96
71047;SHT31;58703;48.978;8.982;2023-07-13T16:07:11;29.29;36.07